Terminal Aerodrome Forecast
Issued by NWS

Home | Current Version | Previous Version | Graphics & Text | Print | Product List | Glossary On
Versions: 1 2 3 4 5 6 7 8 9 10 11 12 13 14 15 16 17 18 19 20 21
082
FTUS42 KMHX 131739
TAFOAJ
TAF
KOAJ 131739Z 1318/1418 VRB03KT P6SM VCTS BKN050CB
      TEMPO 1318/1322 VRB08G15KT 2SM -TSRA BKN015CB
     FM140600 00000KT 3SM BR OVC015
     FM140900 00000KT 1SM BR OVC010
     FM141400 VRB04KT P6SM VCTS BKN035CB
      AMD LTD TO CLD VIS AND WIND=

USA.gov is the U.S. government's official web portal to all federal, state and local government web resources and services.